createdAt,value
2023-02-14T00:01:28.937Z,80319.59
2023-02-14T00:06:35.367Z,80311.56
2023-02-14T00:11:36.949Z,80313.59
2023-02-14T00:16:38.415Z,80319.59
2023-02-14T00:21:40.455Z,80323.63
2023-02-14T00:26:43.143Z,80329.63
2023-02-14T00:31:45.238Z,80325.63
2023-02-14T00:36:47.568Z,80321.59
2023-02-14T00:41:49.041Z,80325.63
2023-02-14T00:46:50.596Z,80319.59
2023-02-14T00:51:52.104Z,80319.59
2023-02-14T00:56:53.579Z,80321.59
2023-02-14T01:01:55.131Z,80323.63
2023-02-14T01:06:56.604Z,80323.63
2023-02-14T01:11:58.035Z,80319.59
2023-02-14T01:16:59.492Z,80313.59
2023-02-14T01:22:00.924Z,80319.59
2023-02-14T01:27:02.359Z,80317.59
2023-02-14T01:32:04.012Z,80319.59
2023-02-14T01:37:05.534Z,80311.56
2023-02-14T01:42:07.081Z,80309.56
2023-02-14T01:47:10.586Z,80303.56
2023-02-14T01:52:18.310Z,80303.56
2023-02-14T01:57:22.876Z,80303.56
2023-02-14T02:02:24.425Z,80303.56
2023-02-14T02:07:29.131Z,80301.53
2023-02-14T02:12:31.124Z,80291.50
2023-02-14T02:18:11.121Z,80317.59
2023-02-14T02:23:37.322Z,80311.56
2023-02-14T02:29:00.486Z,80319.59
2023-02-14T02:34:13.397Z,80321.59
2023-02-14T02:39:32.754Z,80319.59
2023-02-14T02:44:52.996Z,80321.59
2023-02-14T02:50:24.484Z,80307.56
2023-02-14T02:55:30.473Z,80317.59
2023-02-14T03:00:32.058Z,80311.56
2023-02-14T03:05:35.298Z,80307.56
2023-02-14T03:10:39.168Z,80301.53
2023-02-14T03:15:58.252Z,80311.56
2023-02-14T03:21:03.285Z,80319.59
2023-02-14T03:26:07.834Z,80319.59
2023-02-14T03:31:37.016Z,80315.59
2023-02-14T03:36:54.108Z,80335.66
2023-02-14T03:42:07.530Z,80329.63
2023-02-14T03:47:16.392Z,80339.66
2023-02-14T03:52:19.411Z,80341.66
2023-02-14T03:57:26.911Z,80349.69
2023-02-14T04:02:54.472Z,80351.69
2023-02-14T04:07:57.850Z,80343.69
2023-02-14T04:12:59.311Z,80351.69
2023-02-14T04:18:19.417Z,80353.72
2023-02-14T04:23:20.921Z,80359.72
2023-02-14T04:28:22.356Z,80363.75
2023-02-14T04:33:23.764Z,80365.75
2023-02-14T04:38:25.467Z,80363.75
2023-02-14T04:43:26.944Z,80359.72
2023-02-14T04:48:28.358Z,80359.72
2023-02-14T04:53:29.915Z,80353.72
2023-02-14T04:58:31.361Z,80347.69
2023-02-14T05:03:32.828Z,80339.66
2023-02-14T05:08:34.327Z,80331.63
2023-02-14T05:13:35.880Z,80333.66
2023-02-14T05:18:37.337Z,80339.66
2023-02-14T05:23:38.877Z,80339.66
2023-02-14T05:28:41.068Z,80339.66
2023-02-14T05:33:42.872Z,80347.69
2023-02-14T05:38:44.383Z,80339.66
2023-02-14T05:43:45.940Z,80327.63
2023-02-14T05:48:47.432Z,80337.66
2023-02-14T05:53:48.939Z,80343.69
2023-02-14T05:58:50.366Z,80343.69
2023-02-14T06:03:51.880Z,80343.69
2023-02-14T06:08:53.362Z,80335.66
2023-02-14T06:13:54.799Z,80339.66
2023-02-14T06:18:56.211Z,80341.66
2023-02-14T06:23:57.739Z,80335.66
2023-02-14T06:28:59.514Z,80341.66
2023-02-14T06:34:01.120Z,80333.66
2023-02-14T06:39:03.229Z,80337.66
2023-02-14T06:44:04.877Z,80335.66
2023-02-14T06:49:06.332Z,80333.66
2023-02-14T06:54:07.787Z,80333.66
2023-02-14T06:59:09.412Z,80339.66
2023-02-14T07:04:11.577Z,80325.63
2023-02-14T07:09:16.871Z,80313.59
2023-02-14T07:14:18.316Z,80307.56
2023-02-14T07:19:19.808Z,80307.56
2023-02-14T07:24:21.358Z,80305.56
2023-02-14T07:29:22.831Z,80295.53
2023-02-14T07:34:24.698Z,80299.53
2023-02-14T07:39:26.177Z,80289.50
2023-02-14T07:44:27.773Z,80269.44
2023-02-14T07:49:29.242Z,80277.47
2023-02-14T07:54:30.702Z,80261.44
2023-02-14T07:59:32.213Z,80263.44
2023-02-14T08:04:34.003Z,80257.41
2023-02-14T08:09:35.515Z,80239.34
2023-02-14T08:14:37.526Z,80237.34
2023-02-14T08:19:40.000Z,80229.31
2023-02-14T08:24:42.448Z,80223.31
2023-02-14T08:29:43.995Z,80207.25
2023-02-14T08:34:45.540Z,80187.19
2023-02-14T08:39:47.089Z,80169.13
2023-02-14T08:44:48.612Z,80171.16
2023-02-14T08:49:50.327Z,80173.16
2023-02-14T08:54:51.853Z,80147.06
2023-02-14T08:59:53.783Z,80147.06
2023-02-14T09:04:55.285Z,80127.00
2023-02-14T09:09:56.800Z,80123.00
2023-02-14T09:14:58.364Z,80125.00
2023-02-14T09:19:59.895Z,80104.94
2023-02-14T09:25:01.406Z,80096.94
2023-02-14T09:30:03.195Z,80074.84
2023-02-14T09:35:05.148Z,80060.81
2023-02-14T09:40:07.207Z,80056.81
2023-02-14T09:45:21.050Z,80042.75
2023-02-14T09:50:27.634Z,80018.69
2023-02-14T09:55:39.964Z,79986.59
2023-02-14T10:00:46.849Z,80010.66
2023-02-14T10:06:07.512Z,79970.53
2023-02-14T10:11:13.579Z,79982.56
2023-02-14T10:16:21.113Z,79952.50
2023-02-14T10:21:31.881Z,79928.41
2023-02-14T10:26:38.244Z,79932.44
2023-02-14T10:32:00.804Z,79926.41
2023-02-14T10:37:27.813Z,79920.41
2023-02-14T10:42:38.528Z,79902.34
2023-02-14T10:48:10.731Z,79870.25
2023-02-14T10:53:32.792Z,79886.28
2023-02-14T10:58:38.476Z,79848.19
2023-02-14T11:03:52.386Z,79856.19
2023-02-14T11:08:56.261Z,79870.25
2023-02-14T11:13:58.803Z,79790.00
2023-02-14T11:19:09.170Z,79607.47
2023-02-14T11:24:33.112Z,79170.22
2023-02-14T11:29:39.216Z,78997.75
2023-02-14T11:34:54.019Z,78546.53
2023-02-14T11:39:58.111Z,78664.84
2023-02-14T11:44:59.748Z,78486.38
2023-02-14T11:50:07.294Z,78348.03
2023-02-14T11:55:24.611Z,78538.53
2023-02-14T12:00:27.037Z,78512.44
2023-02-14T12:05:31.819Z,78344.00
2023-02-14T12:10:35.663Z,78354.03
2023-02-14T12:15:42.733Z,78464.31
2023-02-14T12:20:49.668Z,78269.81
2023-02-14T12:26:00.145Z,78151.53
2023-02-14T12:31:02.144Z,78508.44
2023-02-14T12:36:15.404Z,78275.84
2023-02-14T12:42:00.050Z,78201.66
2023-02-14T12:47:22.277Z,78299.91
2023-02-14T12:53:02.679Z,78338.00
2023-02-14T12:58:35.057Z,78307.91
2023-02-14T13:04:04.697Z,78235.72
2023-02-14T13:09:12.396Z,78366.06
2023-02-14T13:14:47.878Z,78412.19
2023-02-14T13:20:08.239Z,78279.84
2023-02-14T13:25:31.682Z,78430.22
2023-02-14T13:30:38.498Z,78466.34
2023-02-14T13:35:41.224Z,78406.19
2023-02-14T13:40:43.307Z,78329.97
2023-02-14T13:45:55.059Z,78352.03
2023-02-14T13:51:08.741Z,78277.84
2023-02-14T13:56:13.170Z,78422.22
2023-02-14T14:01:53.331Z,78340.00
2023-02-14T14:07:03.433Z,78348.03
2023-02-14T14:12:27.814Z,78275.84
2023-02-14T14:17:29.382Z,78350.03
2023-02-14T14:22:31.105Z,78512.44
2023-02-14T14:27:40.089Z,78460.31
2023-02-14T14:32:41.590Z,78466.34
2023-02-14T14:37:57.265Z,78522.47
2023-02-14T14:43:14.650Z,78598.69
2023-02-14T14:48:28.897Z,78678.88
2023-02-14T14:53:33.412Z,78755.09
2023-02-14T14:58:36.603Z,78883.44
2023-02-14T15:03:38.242Z,79011.78
2023-02-14T15:08:39.686Z,79112.06
2023-02-14T15:13:50.485Z,79154.19
2023-02-14T15:18:57.516Z,79218.38
2023-02-14T15:24:00.902Z,79246.44
2023-02-14T15:29:06.734Z,79302.59
2023-02-14T15:34:10.101Z,79338.69
2023-02-14T15:39:16.795Z,79394.88
2023-02-14T15:44:23.573Z,79422.94
2023-02-14T15:49:35.592Z,79479.09
2023-02-14T15:54:41.871Z,79499.16
2023-02-14T15:59:43.610Z,79529.25
2023-02-14T16:04:45.209Z,79553.31
2023-02-14T16:09:46.806Z,79585.41
2023-02-14T16:15:14.890Z,79597.44
2023-02-14T16:20:22.733Z,79623.53
2023-02-14T16:25:24.229Z,79631.53
2023-02-14T16:30:26.186Z,79671.66
2023-02-14T16:35:29.431Z,79687.72
2023-02-14T16:40:30.979Z,79705.75
2023-02-14T16:45:32.508Z,79745.88
2023-02-14T16:50:36.406Z,79781.97
2023-02-14T16:55:38.007Z,79828.13
2023-02-14T17:00:39.837Z,79862.22
2023-02-14T17:05:41.655Z,79900.34
2023-02-14T17:10:45.914Z,79920.41
2023-02-14T17:15:48.645Z,79944.47
2023-02-14T17:20:50.274Z,79958.50
2023-02-14T17:25:52.064Z,79978.56
2023-02-14T17:30:54.142Z,80004.66
2023-02-14T17:35:56.105Z,80016.69
2023-02-14T17:40:57.675Z,80018.69
2023-02-14T17:45:59.152Z,80022.69
2023-02-14T17:51:08.645Z,80028.72
2023-02-14T17:56:11.686Z,80042.75
2023-02-14T18:01:14.715Z,80060.81
2023-02-14T18:06:16.218Z,80070.84
2023-02-14T18:11:19.867Z,80078.88
2023-02-14T18:16:21.940Z,80080.88
2023-02-14T18:21:24.550Z,80084.88
2023-02-14T18:26:26.804Z,80106.94
2023-02-14T18:31:28.344Z,80125.00
2023-02-14T18:36:31.776Z,80127.00
2023-02-14T18:41:33.363Z,80147.06
2023-02-14T18:46:36.058Z,80147.06
2023-02-14T18:51:41.186Z,80161.13
2023-02-14T18:56:42.954Z,80167.13
2023-02-14T19:01:45.508Z,80165.13
2023-02-14T19:06:47.124Z,80179.16
2023-02-14T19:11:48.652Z,80179.16
2023-02-14T19:16:51.924Z,80177.16
2023-02-14T19:21:53.789Z,80183.19
2023-02-14T19:26:56.781Z,80197.22
2023-02-14T19:31:59.358Z,80199.22
2023-02-14T19:37:02.304Z,80197.22
2023-02-14T19:42:05.186Z,80197.22
2023-02-14T19:47:22.800Z,80213.28
2023-02-14T19:52:28.163Z,80207.25
2023-02-14T19:57:29.636Z,80207.25
2023-02-14T20:02:31.201Z,80203.25
2023-02-14T20:07:32.714Z,80211.28
2023-02-14T20:12:34.197Z,80215.28
2023-02-14T20:17:35.746Z,80231.34
2023-02-14T20:22:37.268Z,80249.38
2023-02-14T20:27:38.902Z,80265.44
2023-02-14T20:32:40.687Z,80259.41
2023-02-14T20:37:42.238Z,80273.47
2023-02-14T20:42:43.757Z,80283.50
2023-02-14T20:47:48.687Z,80285.50
2023-02-14T20:52:50.281Z,80293.53
2023-02-14T20:57:51.753Z,80299.53
2023-02-14T21:02:53.291Z,80299.53
2023-02-14T21:07:54.726Z,80307.56
2023-02-14T21:12:56.313Z,80311.56
2023-02-14T21:17:57.804Z,80319.59
2023-02-14T21:22:59.260Z,80327.63
2023-02-14T21:28:00.778Z,80325.63
2023-02-14T21:33:02.288Z,80329.63
2023-02-14T21:38:04.792Z,80317.59
2023-02-14T21:43:06.258Z,80311.56
2023-02-14T21:48:26.094Z,80321.59
2023-02-14T21:53:27.574Z,80323.63
2023-02-14T21:58:29.128Z,80335.66
2023-02-14T22:03:31.641Z,80347.69
2023-02-14T22:08:34.007Z,80351.69
2023-02-14T22:13:36.025Z,80363.75
2023-02-14T22:18:38.567Z,80361.72
2023-02-14T22:23:40.438Z,80353.72
2023-02-14T22:28:43.170Z,80365.75
2023-02-14T22:33:45.756Z,80371.75
2023-02-14T22:38:47.279Z,80371.75
2023-02-14T22:43:48.981Z,80369.75
2023-02-14T22:48:51.801Z,80375.78
2023-02-14T22:53:55.915Z,80377.78
2023-02-14T22:59:06.275Z,80379.78
2023-02-14T23:04:07.842Z,80379.78
2023-02-14T23:09:11.495Z,80395.84
2023-02-14T23:14:33.697Z,80391.81
2023-02-14T23:19:55.405Z,80397.84
2023-02-14T23:24:59.845Z,80391.81
2023-02-14T23:30:01.883Z,80399.84
2023-02-14T23:35:03.786Z,80413.91
2023-02-14T23:40:06.658Z,80423.94
2023-02-14T23:45:27.162Z,80419.91
2023-02-14T23:50:28.616Z,80425.94
2023-02-14T23:55:30.053Z,80429.94
